MMSD/SJD METAR and TAF weather

Enter ICAO airport designator
Station Type Date Time Source
MMSD METAR 2020/02/16 19:42 UTC NOAA

MMSD 161942Z 31010KT 10SM BKN120 BKN200 27/03 A2998 RMK 8/038


Station Type Date Time Source
MMSD Decoded METAR 2020/02/16 19:42 UTC NOAA

San Jose Del Cabo , Mexico (MMSD) 23-09N 109-42W
Feb 16, 2020 - 02:42 PM EST / 2020.02.16 1942 UTC
Wind: from the NW (310 degrees) at 12 MPH (10 KT):0
Visibility: 10 mile(s):0
Sky conditions: mostly cloudy
Temperature: 80 F (27 C)
Dew Point: 37 F (3 C)
Relative Humidity: 21%
Pressure (altimeter): 29.98 in. Hg (1015 hPa)
ob: MMSD 161942Z 31010KT 10SM BKN120 BKN200 27/03 A2998 RMK 8/038
cycle: 19

Station Type Date Time Source
MMSD TAF 2020/02/16 18:46 UTC NOAA

TAF MMSD 161644Z 1618/1718 34012KT P6SM SCT120 BKN200
FM170300 00000KT P6SM BKN120 OVC200

Example: see airport list